createdAt,value
2024-01-16T00:09:12.981Z,16.08
2024-01-16T00:18:23.944Z,17.23
2024-01-16T00:20:56.018Z,18.05
2024-01-16T00:23:34.220Z,17.15
2024-01-16T00:33:13.846Z,17.05
2024-01-16T00:35:46.203Z,18.88
2024-01-16T00:38:17.398Z,18.25
2024-01-16T00:40:48.033Z,17.35
2024-01-16T00:43:21.303Z,17.85
2024-01-16T00:45:53.383Z,19.55
2024-01-16T00:48:29.496Z,19.00
2024-01-16T00:51:06.431Z,18.13
2024-01-16T00:56:04.266Z,19.02
2024-01-16T00:58:39.088Z,18.88
2024-01-16T01:01:15.203Z,19.42
2024-01-16T01:04:07.033Z,19.98
2024-01-16T01:06:36.549Z,19.33
2024-01-16T01:09:04.246Z,18.20
2024-01-16T01:11:31.259Z,17.55
2024-01-16T01:14:07.125Z,17.90
2024-01-16T01:16:34.680Z,16.80
2024-01-16T01:19:05.381Z,17.30
2024-01-16T01:21:32.294Z,14.88
2024-01-16T01:23:59.096Z,15.60
2024-01-16T01:26:28.792Z,16.10
2024-01-16T01:28:56.168Z,16.50
2024-01-16T01:31:24.197Z,15.75
2024-01-16T01:33:51.238Z,17.90
2024-01-16T01:36:18.124Z,16.60
2024-01-16T01:38:45.108Z,17.23
2024-01-16T01:41:14.969Z,15.50
2024-01-16T01:43:41.956Z,14.75
2024-01-16T01:46:19.653Z,16.38
2024-01-16T01:48:55.013Z,16.38
2024-01-16T01:51:22.058Z,16.38
2024-01-16T01:53:51.459Z,16.20
2024-01-16T01:56:20.584Z,16.88
2024-01-16T01:58:50.940Z,16.80
2024-01-16T02:01:20.802Z,15.32
2024-01-16T02:03:48.624Z,17.50
2024-01-16T02:06:18.992Z,16.17
2024-01-16T02:08:46.874Z,16.98
2024-01-16T02:11:14.411Z,16.60
2024-01-16T02:13:46.719Z,17.05
2024-01-16T02:16:28.922Z,17.23
2024-01-16T02:18:57.155Z,17.05
2024-01-16T02:21:30.155Z,16.92
2024-01-16T02:23:58.118Z,16.67
2024-01-16T02:26:25.085Z,18.58
2024-01-16T02:28:54.041Z,16.80
2024-01-16T02:31:21.113Z,17.95
2024-01-16T02:33:48.045Z,17.15
2024-01-16T02:36:15.135Z,19.05
2024-01-16T02:38:45.374Z,17.08
2024-01-16T02:41:23.175Z,17.48
2024-01-16T02:43:52.531Z,16.92
2024-01-16T02:46:25.824Z,16.75
2024-01-16T02:48:59.001Z,19.65
2024-01-16T02:51:27.012Z,18.45
2024-01-16T02:54:04.657Z,18.33
2024-01-16T02:56:59.492Z,18.15
2024-01-16T02:59:33.438Z,16.48
2024-01-16T03:02:07.487Z,17.35
2024-01-16T03:04:44.176Z,16.65
2024-01-16T03:07:17.759Z,17.98
2024-01-16T03:09:51.216Z,17.23
2024-01-16T03:12:24.365Z,17.27
2024-01-16T03:15:02.627Z,17.40
2024-01-16T03:17:32.651Z,16.92
2024-01-16T03:20:05.889Z,16.45
2024-01-16T03:22:36.083Z,17.42
2024-01-16T03:25:04.482Z,17.38
2024-01-16T03:27:31.367Z,17.17
2024-01-16T03:29:58.325Z,17.45
2024-01-16T03:32:25.355Z,17.35
2024-01-16T03:34:52.407Z,16.80
2024-01-16T03:37:19.220Z,17.13
2024-01-16T03:39:46.361Z,16.60
2024-01-16T03:42:17.192Z,18.20
2024-01-16T03:44:44.793Z,18.20
2024-01-16T03:47:12.042Z,19.02
2024-01-16T03:49:39.147Z,19.38
2024-01-16T03:52:06.492Z,16.40
2024-01-16T03:54:33.348Z,17.65
2024-01-16T03:57:00.281Z,15.63
2024-01-16T03:59:27.334Z,16.88
2024-01-16T04:01:54.192Z,17.65
2024-01-16T04:04:21.555Z,16.33
2024-01-16T04:06:50.420Z,17.83
2024-01-16T04:09:17.456Z,20.30
2024-01-16T04:11:44.531Z,21.02
2024-01-16T04:14:11.410Z,22.15
2024-01-16T04:16:38.911Z,19.67
2024-01-16T04:19:08.711Z,19.65
2024-01-16T04:21:37.662Z,20.70
2024-01-16T04:24:04.759Z,20.08
2024-01-16T04:26:31.876Z,18.45
2024-01-16T04:29:01.409Z,17.77
2024-01-16T04:31:30.870Z,19.23
2024-01-16T04:33:57.760Z,20.40
2024-01-16T04:36:24.925Z,20.13
2024-01-16T04:38:51.815Z,17.77
2024-01-16T04:41:39.891Z,18.17
2024-01-16T04:44:06.889Z,16.10
2024-01-16T04:46:33.835Z,17.17
2024-01-16T04:49:01.869Z,17.17
2024-01-16T04:51:30.039Z,17.05
2024-01-16T04:53:57.491Z,17.10
2024-01-16T04:56:26.284Z,17.05
2024-01-16T04:58:54.610Z,15.52
2024-01-16T05:01:24.911Z,16.85
2024-01-16T05:03:52.102Z,17.40
2024-01-16T05:06:21.881Z,18.65
2024-01-16T05:08:49.916Z,20.70
2024-01-16T05:11:18.556Z,22.40
2024-01-16T05:13:47.269Z,24.38
2024-01-16T05:16:14.918Z,32.08
2024-01-16T05:18:44.518Z,32.72
2024-01-16T05:21:11.487Z,27.95
2024-01-16T05:23:42.413Z,22.98
2024-01-16T05:26:10.704Z,31.75
2024-01-16T05:28:41.425Z,29.80
2024-01-16T05:31:08.647Z,28.90
2024-01-16T05:33:37.229Z,24.20
2024-01-16T05:36:05.080Z,22.45
2024-01-16T05:38:31.933Z,22.30
2024-01-16T05:40:59.970Z,30.08
2024-01-16T05:43:29.918Z,31.30
2024-01-16T05:45:59.108Z,30.50
2024-01-16T05:48:26.176Z,37.60
2024-01-16T05:50:58.449Z,38.00
2024-01-16T05:53:27.824Z,37.75
2024-01-16T05:55:58.107Z,27.25
2024-01-16T05:58:29.101Z,21.35
2024-01-16T06:00:57.045Z,18.70
2024-01-16T06:03:24.271Z,19.80
2024-01-16T06:05:51.220Z,18.27
2024-01-16T06:08:18.397Z,18.33
2024-01-16T06:10:46.565Z,18.38
2024-01-16T06:13:14.207Z,17.25
2024-01-16T06:15:41.266Z,20.58
2024-01-16T06:18:10.583Z,22.05
2024-01-16T06:20:42.869Z,20.35
2024-01-16T06:23:10.119Z,19.02
2024-01-16T06:25:37.408Z,17.30
2024-01-16T06:28:07.147Z,16.52
2024-01-16T06:30:42.964Z,16.38
2024-01-16T06:33:14.976Z,18.83
2024-01-16T06:35:48.783Z,17.52
2024-01-16T06:38:27.846Z,18.73
2024-01-16T06:40:55.273Z,18.95
2024-01-16T06:43:23.677Z,21.67
2024-01-16T06:45:51.708Z,18.08
2024-01-16T06:48:19.654Z,18.48
2024-01-16T06:50:47.312Z,18.67
2024-01-16T06:53:45.384Z,18.13
2024-01-16T06:56:14.946Z,17.02
2024-01-16T06:58:44.885Z,19.65
2024-01-16T07:01:15.806Z,18.65
2024-01-16T07:03:49.681Z,15.63
2024-01-16T07:06:24.553Z,18.23
2024-01-16T07:08:52.569Z,17.80
2024-01-16T07:11:25.281Z,19.08
2024-01-16T07:13:53.580Z,15.50
2024-01-16T07:16:21.164Z,15.00
2024-01-16T07:18:51.613Z,15.35
2024-01-16T07:21:25.350Z,13.90
2024-01-16T07:24:03.163Z,14.55
2024-01-16T07:26:43.552Z,13.45
2024-01-16T07:29:17.785Z,12.77
2024-01-16T07:31:45.881Z,13.23
2024-01-16T07:34:34.116Z,13.40
2024-01-16T07:37:10.843Z,14.68
2024-01-16T07:39:43.545Z,11.85
2024-01-16T07:42:12.616Z,12.45
2024-01-16T07:44:47.831Z,14.07
2024-01-16T07:47:21.693Z,13.73
2024-01-16T07:49:52.662Z,13.57
2024-01-16T07:52:26.506Z,13.23
2024-01-16T07:55:00.325Z,13.48
2024-01-16T07:57:29.962Z,13.43
2024-01-16T08:00:05.627Z,12.60
2024-01-16T08:02:40.421Z,14.20
2024-01-16T08:05:19.072Z,14.35
2024-01-16T08:07:55.667Z,13.98
2024-01-16T08:10:43.573Z,13.55
2024-01-16T08:14:11.349Z,14.45
2024-01-16T08:16:47.657Z,13.00
2024-01-16T08:23:11.628Z,13.52
2024-01-16T08:25:40.026Z,12.63
2024-01-16T08:28:11.632Z,11.25
2024-01-16T08:30:38.758Z,11.82
2024-01-16T08:33:05.878Z,13.45
2024-01-16T08:35:33.144Z,14.32
2024-01-16T08:38:00.629Z,12.50
2024-01-16T08:40:29.040Z,11.57
2024-01-16T08:42:58.113Z,11.70
2024-01-16T08:45:27.313Z,11.50
2024-01-16T08:47:57.537Z,10.18
2024-01-16T08:50:27.148Z,10.05
2024-01-16T08:52:54.205Z,9.40
2024-01-16T08:55:35.375Z,9.82
2024-01-16T08:58:02.638Z,9.23
2024-01-16T09:00:29.667Z,8.30
2024-01-16T09:02:57.199Z,8.23
2024-01-16T09:05:27.053Z,5.97
2024-01-16T09:08:02.217Z,6.28
2024-01-16T09:10:31.006Z,6.25
2024-01-16T09:13:00.638Z,6.50
2024-01-16T09:15:33.518Z,6.90
2024-01-16T09:18:02.456Z,7.32
2024-01-16T09:23:44.938Z,7.45
2024-01-16T09:26:16.182Z,8.55
2024-01-16T09:29:15.781Z,7.72
2024-01-16T09:31:59.751Z,9.50
2024-01-16T09:34:34.331Z,8.43
2024-01-16T09:37:11.157Z,8.52
2024-01-16T09:39:47.156Z,9.60
2024-01-16T09:42:57.977Z,8.85
2024-01-16T09:45:33.515Z,8.55
2024-01-16T09:48:06.517Z,10.50
2024-01-16T09:50:42.207Z,8.88
2024-01-16T09:53:15.268Z,8.93
2024-01-16T09:55:43.652Z,9.40
2024-01-16T09:58:16.426Z,8.77
2024-01-16T10:00:52.120Z,7.72
2024-01-16T10:03:23.429Z,8.27
2024-01-16T10:05:55.959Z,8.25
2024-01-16T10:08:42.360Z,8.25
2024-01-16T10:11:41.053Z,7.35
2024-01-16T10:14:17.688Z,5.88
2024-01-16T10:17:35.898Z,6.65
2024-01-16T10:20:09.262Z,5.93
2024-01-16T10:23:13.308Z,6.28
2024-01-16T10:25:41.529Z,5.25
2024-01-16T10:28:15.523Z,6.95
2024-01-16T10:31:10.537Z,5.15
2024-01-16T10:33:46.439Z,5.25
2024-01-16T10:36:25.690Z,5.97
2024-01-16T10:38:59.075Z,5.70
2024-01-16T10:41:38.261Z,5.63
2024-01-16T10:44:14.358Z,4.88
2024-01-16T10:46:47.709Z,4.20
2024-01-16T10:49:19.360Z,3.25
2024-01-16T10:52:11.984Z,2.83
2024-01-16T10:54:49.090Z,2.90
2024-01-16T10:57:16.554Z,3.22
2024-01-16T11:00:14.570Z,2.83
2024-01-16T11:02:55.795Z,3.22
2024-01-16T11:08:43.363Z,2.63
2024-01-16T11:11:11.186Z,3.55
2024-01-16T11:13:42.523Z,2.97
2024-01-16T11:16:12.235Z,3.30
2024-01-16T11:18:50.220Z,3.75
2024-01-16T11:21:21.895Z,2.90
2024-01-16T11:23:54.185Z,2.35
2024-01-16T11:26:42.455Z,3.25
2024-01-16T11:29:44.008Z,3.08
2024-01-16T11:33:49.173Z,3.03
2024-01-16T11:49:49.216Z,2.75
2024-01-16T11:56:27.485Z,2.25
2024-01-16T11:59:35.971Z,2.40
2024-01-16T12:02:21.083Z,2.05
2024-01-16T12:05:09.552Z,2.25
2024-01-16T12:11:53.524Z,3.53
2024-01-16T12:14:21.164Z,3.20
2024-01-16T12:17:21.553Z,2.35
2024-01-16T12:23:19.388Z,2.20
2024-01-16T12:26:01.606Z,2.70
2024-01-16T12:28:45.901Z,2.88
2024-01-16T12:31:20.078Z,2.30
2024-01-16T12:33:58.371Z,2.40
2024-01-16T12:36:33.941Z,2.38
2024-01-16T12:39:01.377Z,3.00
2024-01-16T12:42:02.494Z,2.58
2024-01-16T12:44:37.718Z,3.20
2024-01-16T12:47:05.078Z,2.17
2024-01-16T12:49:32.298Z,2.60
2024-01-16T12:52:22.895Z,2.47
2024-01-16T12:54:55.794Z,3.50
2024-01-16T12:57:25.849Z,4.22
2024-01-16T12:59:58.709Z,4.50
2024-01-16T13:02:29.609Z,3.10
2024-01-16T13:05:21.180Z,2.35
2024-01-16T13:08:16.041Z,2.80
2024-01-16T13:10:53.484Z,2.55
2024-01-16T13:13:23.444Z,3.35
2024-01-16T13:15:52.687Z,2.88
2024-01-16T13:18:32.993Z,3.90
2024-01-16T13:21:08.945Z,4.07
2024-01-16T13:23:37.304Z,3.97
2024-01-16T13:26:07.255Z,3.70
2024-01-16T13:31:37.096Z,3.45
2024-01-16T13:34:10.126Z,3.33
2024-01-16T13:39:18.828Z,3.58
2024-01-16T13:41:56.771Z,3.38
2024-01-16T13:44:25.762Z,3.65
2024-01-16T13:47:07.290Z,3.72
2024-01-16T13:49:38.105Z,3.70
2024-01-16T13:52:27.337Z,3.70
2024-01-16T13:55:05.044Z,4.03
2024-01-16T13:57:39.556Z,3.80
2024-01-16T14:00:36.254Z,2.67
2024-01-16T14:05:49.286Z,3.65
2024-01-16T14:08:25.273Z,4.32
2024-01-16T14:10:53.058Z,3.75
2024-01-16T14:13:27.403Z,3.15
2024-01-16T14:16:07.224Z,3.83
2024-01-16T14:18:36.863Z,4.10
2024-01-16T14:21:08.604Z,4.18
2024-01-16T14:23:37.278Z,4.35
2024-01-16T14:26:15.692Z,3.90
2024-01-16T14:28:45.791Z,3.75
2024-01-16T14:31:15.503Z,4.07
2024-01-16T14:33:43.274Z,4.30
2024-01-16T14:36:20.929Z,3.65
2024-01-16T14:38:54.741Z,4.15
2024-01-16T14:41:30.586Z,3.85
2024-01-16T14:43:57.687Z,4.43
2024-01-16T14:46:28.190Z,4.28
2024-01-16T14:48:55.392Z,3.65
2024-01-16T14:51:26.067Z,4.05
2024-01-16T14:53:54.816Z,3.95
2024-01-16T14:56:26.403Z,4.47
2024-01-16T14:59:40.714Z,4.10
2024-01-16T15:02:16.380Z,4.10
2024-01-16T15:04:57.727Z,4.45
2024-01-16T15:07:28.313Z,4.35
2024-01-16T15:10:20.311Z,5.13
2024-01-16T15:12:52.099Z,3.63
2024-01-16T15:15:29.607Z,4.22
2024-01-16T15:17:59.095Z,5.03
2024-01-16T15:20:27.236Z,4.40
2024-01-16T15:22:55.849Z,4.32
2024-01-16T15:25:24.392Z,4.50
2024-01-16T15:27:56.978Z,5.00
2024-01-16T15:30:32.888Z,4.60
2024-01-16T15:33:07.847Z,5.43
2024-01-16T15:35:35.143Z,4.40
2024-01-16T15:38:04.075Z,5.07
2024-01-16T15:40:36.115Z,4.70
2024-01-16T15:43:12.641Z,4.63
2024-01-16T15:45:41.984Z,4.72
2024-01-16T15:48:22.221Z,5.43
2024-01-16T15:51:12.979Z,4.20
2024-01-16T15:53:46.005Z,4.90
2024-01-16T15:56:31.363Z,4.82
2024-01-16T15:59:02.748Z,5.35
2024-01-16T16:01:33.202Z,4.65
2024-01-16T16:04:02.039Z,5.45
2024-01-16T16:06:39.448Z,4.28
2024-01-16T16:09:09.650Z,4.75
2024-01-16T16:11:45.750Z,4.07
2024-01-16T16:14:21.996Z,5.05
2024-01-16T16:16:57.276Z,5.20
2024-01-16T16:20:00.515Z,5.43
2024-01-16T16:22:33.334Z,5.65
2024-01-16T16:25:27.904Z,4.88
2024-01-16T16:27:54.891Z,5.88
2024-01-16T16:30:26.636Z,5.80
2024-01-16T16:32:54.925Z,5.13
2024-01-16T16:35:23.398Z,7.00
2024-01-16T16:40:48.941Z,5.55
2024-01-16T16:46:18.262Z,6.13
2024-01-16T16:48:47.622Z,6.97
2024-01-16T16:51:28.025Z,6.40
2024-01-16T16:53:55.891Z,6.90
2024-01-16T16:56:27.333Z,6.10
2024-01-16T16:58:54.873Z,5.38
2024-01-16T17:01:48.915Z,5.10
2024-01-16T17:04:19.268Z,5.47
2024-01-16T17:06:53.081Z,5.07
2024-01-16T17:09:21.098Z,5.70
2024-01-16T17:11:48.418Z,5.53
2024-01-16T17:14:16.424Z,5.45
2024-01-16T17:16:43.634Z,7.10
2024-01-16T17:19:12.097Z,7.18
2024-01-16T17:21:41.905Z,7.10
2024-01-16T17:25:04.965Z,7.35
2024-01-16T17:27:58.636Z,6.05
2024-01-16T17:30:26.736Z,8.13
2024-01-16T17:32:56.481Z,8.85
2024-01-16T17:35:25.241Z,7.97
2024-01-16T17:37:52.128Z,7.25
2024-01-16T17:40:25.227Z,6.93
2024-01-16T17:42:54.964Z,7.20
2024-01-16T17:45:22.031Z,7.72
2024-01-16T17:47:49.002Z,7.72
2024-01-16T17:50:19.586Z,6.20
2024-01-16T17:52:46.824Z,6.25
2024-01-16T17:55:13.825Z,6.40
2024-01-16T17:57:46.573Z,6.43
2024-01-16T18:00:14.223Z,6.90
2024-01-16T18:02:43.230Z,6.05
2024-01-16T18:05:17.931Z,6.10
2024-01-16T18:07:45.438Z,6.95
2024-01-16T18:10:34.928Z,6.93
2024-01-16T18:13:02.008Z,6.38
2024-01-16T18:15:29.282Z,6.75
2024-01-16T18:18:03.119Z,6.30
2024-01-16T18:20:35.682Z,6.70
2024-01-16T18:23:04.558Z,8.48
2024-01-16T18:25:41.382Z,7.22
2024-01-16T18:28:08.903Z,5.90
2024-01-16T18:30:38.162Z,5.70
2024-01-16T18:33:06.246Z,7.38
2024-01-16T18:35:37.771Z,7.20
2024-01-16T18:38:05.653Z,7.10
2024-01-16T18:40:32.500Z,6.90
2024-01-16T18:43:01.039Z,6.82
2024-01-16T18:45:46.304Z,7.28
2024-01-16T18:48:16.157Z,8.00
2024-01-16T18:50:43.521Z,6.30
2024-01-16T18:53:13.726Z,5.03
2024-01-16T18:55:41.965Z,6.65
2024-01-16T18:58:12.121Z,7.00
2024-01-16T19:00:51.801Z,7.65
2024-01-16T19:03:31.200Z,6.95
2024-01-16T19:06:14.070Z,7.13
2024-01-16T19:08:44.687Z,6.25
2024-01-16T19:11:11.979Z,7.40
2024-01-16T19:13:45.601Z,7.03
2024-01-16T19:16:20.564Z,6.13
2024-01-16T19:18:47.785Z,7.32
2024-01-16T19:21:15.099Z,6.82
2024-01-16T19:23:42.290Z,7.00
2024-01-16T19:26:10.561Z,7.43
2024-01-16T19:28:41.890Z,6.82
2024-01-16T19:31:14.216Z,6.57
2024-01-16T19:33:45.967Z,6.93
2024-01-16T19:36:14.700Z,7.25
2024-01-16T19:38:41.591Z,6.38
2024-01-16T19:41:10.610Z,7.15
2024-01-16T19:43:37.634Z,6.75
2024-01-16T19:46:05.048Z,6.90
2024-01-16T19:48:36.061Z,6.68
2024-01-16T19:51:03.577Z,7.00
2024-01-16T19:53:34.640Z,7.22
2024-01-16T19:56:06.484Z,8.23
2024-01-16T19:58:38.651Z,7.18
2024-01-16T20:01:06.028Z,7.32
2024-01-16T20:03:37.179Z,7.88
2024-01-16T20:06:05.088Z,7.40
2024-01-16T20:08:32.112Z,8.27
2024-01-16T20:11:03.967Z,7.13
2024-01-16T20:13:31.080Z,7.80
2024-01-16T20:15:58.195Z,6.30
2024-01-16T20:18:25.467Z,7.90
2024-01-16T20:20:54.958Z,7.40
2024-01-16T20:23:21.891Z,7.63
2024-01-16T20:25:49.135Z,6.53
2024-01-16T20:28:16.284Z,6.85
2024-01-16T20:30:50.944Z,6.25
2024-01-16T20:33:18.538Z,7.95
2024-01-16T20:35:45.714Z,6.63
2024-01-16T20:38:13.296Z,7.57
2024-01-16T20:40:41.029Z,6.80
2024-01-16T20:43:10.026Z,7.60
2024-01-16T20:45:36.947Z,7.22
2024-01-16T20:48:05.923Z,8.10
2024-01-16T20:50:33.236Z,7.28
2024-01-16T20:53:01.763Z,6.90
2024-01-16T20:55:31.857Z,7.57
2024-01-16T20:58:00.793Z,7.75
2024-01-16T21:00:35.136Z,7.60
2024-01-16T21:03:08.498Z,8.55
2024-01-16T21:05:36.127Z,6.93
2024-01-16T21:08:04.365Z,7.13
2024-01-16T21:10:32.810Z,7.28
2024-01-16T21:12:59.847Z,7.97
2024-01-16T21:15:26.968Z,6.78
2024-01-16T21:17:54.139Z,6.00
2024-01-16T21:20:21.239Z,5.60
2024-01-16T21:22:55.669Z,6.78
2024-01-16T21:25:23.911Z,5.88
2024-01-16T21:27:55.872Z,6.63
2024-01-16T21:30:27.691Z,5.53
2024-01-16T21:32:57.968Z,6.07
2024-01-16T21:35:24.998Z,6.28
2024-01-16T21:37:52.003Z,5.60
2024-01-16T21:40:39.160Z,6.30
2024-01-16T21:43:11.232Z,6.63
2024-01-16T21:45:38.375Z,6.25
2024-01-16T21:48:06.979Z,6.13
2024-01-16T21:53:34.437Z,6.65
2024-01-16T21:56:05.059Z,7.75
2024-01-16T21:58:32.123Z,7.18
2024-01-16T22:00:59.074Z,8.45
2024-01-16T22:03:27.024Z,6.45
2024-01-16T22:05:58.112Z,5.88
2024-01-16T22:08:25.759Z,6.47
2024-01-16T22:10:53.147Z,7.13
2024-01-16T22:13:26.234Z,7.00
2024-01-16T22:15:53.025Z,7.60
2024-01-16T22:18:20.287Z,7.72
2024-01-16T22:20:47.595Z,7.43
2024-01-16T22:23:14.461Z,8.20
2024-01-16T22:26:01.371Z,7.78
2024-01-16T22:28:31.374Z,8.93
2024-01-16T22:30:59.948Z,8.82
2024-01-16T22:33:28.386Z,8.52
2024-01-16T22:35:55.907Z,8.70
2024-01-16T22:38:27.062Z,8.73
2024-01-16T22:40:56.544Z,9.00
2024-01-16T22:43:23.452Z,8.82
2024-01-16T22:45:51.454Z,8.88
2024-01-16T22:48:18.628Z,8.13
2024-01-16T22:50:50.744Z,7.97
2024-01-16T22:53:18.695Z,8.30
2024-01-16T22:56:05.766Z,6.97
2024-01-16T22:58:33.867Z,7.22
2024-01-16T23:01:02.312Z,8.10
2024-01-16T23:03:30.690Z,8.05
2024-01-16T23:05:58.207Z,8.00
2024-01-16T23:08:25.303Z,7.70
2024-01-16T23:10:55.221Z,9.38
2024-01-16T23:13:24.152Z,7.55
2024-01-16T23:15:51.128Z,7.28
2024-01-16T23:18:19.164Z,7.07
2024-01-16T23:20:47.653Z,7.80
2024-01-16T23:23:16.123Z,7.05
2024-01-16T23:25:46.725Z,7.22
2024-01-16T23:28:14.512Z,6.88
2024-01-16T23:30:41.424Z,7.72
2024-01-16T23:33:09.419Z,8.18
2024-01-16T23:35:37.199Z,6.53
2024-01-16T23:38:07.134Z,7.57
2024-01-16T23:40:34.107Z,7.75
2024-01-16T23:43:01.729Z,7.75
2024-01-16T23:45:33.366Z,7.75
2024-01-16T23:48:02.105Z,6.78
2024-01-16T23:50:30.248Z,7.88
2024-01-16T23:52:57.305Z,7.65
2024-01-16T23:55:24.381Z,7.88
2024-01-16T23:57:51.481Z,7.45
